Time;durP1;ratioP1;P1;durP2;ratioP2;P2;SDS_P1;SDS_P2;PMS_P1;PMS_P2;Temp;Humidity;BMP_temperature;BMP_pressure;BME280_temperature;BME280_humidity;BME280_pressure;Samples;Min_cycle;Max_cycle;Signal;HPM_P1;HPM_P2
2021/05/03 00:00:18;;;;;;;39.63;33.72;;;18.40;99.90;;;;;;4935017;29;20038;-73
2021/05/03 00:02:46;;;;;;;42.47;33.75;;;18.30;99.90;;;;;;4936249;29;20393;-74
2021/05/03 00:05:34;;;;;;;48.67;36.30;;;18.70;99.90;;;;;;4933561;29;20092;-74
2021/05/03 00:08:01;;;;;;;38.17;33.83;;;18.80;99.90;;;;;;4930615;29;20055;-73
2021/05/03 00:10:28;;;;;;;44.53;34.80;;;18.80;99.90;;;;;;4932793;29;20044;-73
2021/05/03 00:12:56;;;;;;;38.10;31.23;;;19.00;99.90;;;;;;4933651;29;20123;-71
2021/05/03 00:15:23;;;;;;;36.38;30.55;;;19.30;99.90;;;;;;4932664;29;20035;-70
2021/05/03 00:17:50;;;;;;;34.88;28.17;;;19.50;99.90;;;;;;4917003;29;20031;-70
2021/05/03 00:20:18;;;;;;;40.90;25.95;;;19.80;99.90;;;;;;4929798;29;20044;-70
2021/05/03 00:22:45;;;;;;;35.63;26.08;;;19.90;99.90;;;;;;4926926;29;20051;-71
2021/05/03 00:25:12;;;;;;;30.25;24.33;;;19.90;99.90;;;;;;4915087;29;20071;-71
2021/05/03 00:27:40;;;;;;;31.00;25.50;;;19.60;99.90;;;;;;4932101;29;20040;-71
2021/05/03 00:30:08;;;;;;;32.80;25.13;;;19.90;99.90;;;;;;4897953;29;20043;-70
2021/05/03 00:32:35;;;;;;;29.80;24.98;;;20.00;99.90;;;;;;4931581;29;20046;-70
2021/05/03 00:35:03;;;;;;;28.42;23.63;;;20.40;99.90;;;;;;4928215;29;20119;-70
2021/05/03 00:37:30;;;;;;;28.30;22.85;;;20.40;99.90;;;;;;4935188;29;20040;-70
2021/05/03 00:39:57;;;;;;;29.58;21.40;;;20.10;99.90;;;;;;4934295;29;20075;-70
2021/05/03 00:42:25;;;;;;;25.38;21.13;;;20.60;99.90;;;;;;4935361;29;20051;-70
2021/05/03 00:44:52;;;;;;;23.80;20.15;;;20.60;99.90;;;;;;4931552;29;20465;-69
2021/05/03 00:47:21;;;;;;;26.02;20.77;;;20.40;99.90;;;;;;4917189;29;20272;-71
2021/05/03 00:49:48;;;;;;;25.35;19.83;;;20.20;99.90;;;;;;4933347;29;20036;-70
2021/05/03 00:52:15;;;;;;;24.73;20.67;;;20.30;99.90;;;;;;4935051;29;20048;-71
2021/05/03 00:54:43;;;;;;;26.55;19.85;;;20.50;99.90;;;;;;4929454;29;20040;-71
2021/05/03 00:57:10;;;;;;;26.80;20.38;;;20.50;99.90;;;;;;4932622;29;20063;-70
2021/05/03 00:59:38;;;;;;;24.25;19.40;;;20.50;99.90;;;;;;4931865;29;20141;-71
2021/05/03 01:02:05;;;;;;;29.48;21.38;;;20.80;99.90;;;;;;4925220;29;20159;-70
2021/05/03 01:04:32;;;;;;;27.50;22.30;;;20.90;99.90;;;;;;4925743;29;20083;-71
2021/05/03 01:07:00;;;;;;;29.33;23.95;;;20.60;99.90;;;;;;4930315;29;20409;-70
2021/05/03 01:09:27;;;;;;;28.60;23.00;;;20.80;99.90;;;;;;4927272;29;20397;-71
2021/05/03 01:11:55;;;;;;;28.90;25.80;;;21.20;99.90;;;;;;4932968;29;20031;-71
2021/05/03 01:14:22;;;;;;;31.75;27.70;;;21.20;99.90;;;;;;4930083;29;20543;-70
2021/05/03 01:16:50;;;;;;;35.38;26.85;;;20.80;99.90;;;;;;4933953;29;20481;-70
2021/05/03 01:19:21;;;;;;;35.55;27.13;;;21.20;99.90;;;;;;4929619;29;20500;-70
2021/05/03 01:21:52;;;;;;;32.08;27.08;;;21.40;99.90;;;;;;4928014;29;20187;-70
2021/05/03 01:24:19;;;;;;;33.03;27.08;;;21.30;99.90;;;;;;4929568;29;20040;-70
2021/05/03 01:26:47;;;;;;;31.13;27.75;;;21.50;99.90;;;;;;4933021;29;20472;-71
2021/05/03 01:29:16;;;;;;;36.13;28.58;;;21.70;99.90;;;;;;4929523;29;20388;-71
2021/05/03 01:31:54;;;;;;;38.25;29.08;;;21.80;99.90;;;;;;4931682;29;20043;-70
2021/05/03 01:34:21;;;;;;;34.83;26.85;;;21.30;99.90;;;;;;4924803;29;20082;-71
2021/05/03 01:36:49;;;;;;;36.92;28.00;;;21.70;99.90;;;;;;4915725;29;20440;-71
2021/05/03 01:39:18;;;;;;;36.42;27.45;;;22.00;99.90;;;;;;4931843;29;20123;-70
2021/05/03 01:41:45;;;;;;;28.52;24.10;;;21.90;99.90;;;;;;4932259;29;20052;-71
2021/05/03 01:44:15;;;;;;;25.10;21.08;;;22.00;99.90;;;;;;4930664;29;20493;-70
2021/05/03 01:46:43;;;;;;;26.70;21.38;;;22.00;99.90;;;;;;4932703;29;20102;-70
2021/05/03 01:49:11;;;;;;;19.38;14.95;;;22.00;99.90;;;;;;4928626;29;20059;-70
2021/05/03 01:51:40;;;;;;;23.17;16.58;;;21.60;99.90;;;;;;4914660;29;20519;-70
2021/05/03 01:54:08;;;;;;;17.85;14.30;;;21.70;99.90;;;;;;4912810;29;20063;-70
2021/05/03 01:56:36;;;;;;;19.38;14.00;;;21.70;99.90;;;;;;4933596;29;20501;-70
2021/05/03 01:59:06;;;;;;;11.27;9.38;;;22.00;99.90;;;;;;4914003;29;20119;-70
2021/05/03 02:01:37;;;;;;;11.40;8.98;;;22.20;99.90;;;;;;4931953;29;20386;-70
2021/05/03 02:04:06;;;;;;;6.38;4.50;;;22.40;99.90;;;;;;4931783;29;20032;-70
2021/05/03 02:06:34;;;;;;;7.45;4.53;;;22.40;99.90;;;;;;4933113;29;20048;-71
2021/05/03 02:09:09;;;;;;;9.65;4.55;;;22.50;99.90;;;;;;4930511;29;20067;-71
2021/05/03 02:11:39;;;;;;;10.18;5.43;;;22.30;99.90;;;;;;4937604;29;20038;-71
2021/05/03 02:14:06;;;;;;;8.75;6.68;;;22.80;99.90;;;;;;4931739;29;20028;-71
2021/05/03 02:16:34;;;;;;;10.80;6.18;;;22.70;99.90;;;;;;4935779;29;20393;-71
2021/05/03 02:19:01;;;;;;;10.18;7.10;;;22.80;99.90;;;;;;4935811;29;20038;-71
2021/05/03 02:21:28;;;;;;;11.82;8.45;;;22.60;99.90;;;;;;4920293;29;20036;-71
2021/05/03 02:23:55;;;;;;;9.88;8.05;;;23.10;99.90;;;;;;4916907;29;20036;-70
2021/05/03 02:26:23;;;;;;;10.77;7.72;;;23.40;99.90;;;;;;4936122;29;20080;-72
2021/05/03 02:28:51;;;;;;;12.63;8.40;;;24.10;99.90;;;;;;4918811;29;20040;-71
2021/05/03 02:31:21;;;;;;;13.57;9.85;;;24.70;99.90;;;;;;4936195;29;20032;-71
2021/05/03 02:33:48;;;;;;;15.23;10.88;;;24.90;99.90;;;;;;4935268;29;20123;-71
2021/05/03 02:36:18;;;;;;;12.48;10.05;;;25.00;99.90;;;;;;4917810;29;20048;-71
2021/05/03 02:38:45;;;;;;;24.95;13.02;;;25.00;99.90;;;;;;4932556;29;20118;-71
2021/05/03 02:41:12;;;;;;;16.40;12.73;;;25.20;99.90;;;;;;4918578;29;20036;-71
2021/05/03 02:43:41;;;;;;;13.77;11.35;;;25.10;99.90;;;;;;4918496;29;20107;-71
2021/05/03 02:46:08;;;;;;;15.68;11.07;;;24.70;99.90;;;;;;4936087;29;20094;-71
2021/05/03 02:48:35;;;;;;;16.02;12.35;;;24.20;99.90;;;;;;4933571;29;20163;-71
2021/05/03 02:51:03;;;;;;;14.98;11.25;;;24.00;99.90;;;;;;4937254;29;20114;-71
2021/05/03 02:53:30;;;;;;;18.65;10.93;;;24.00;99.90;;;;;;4935678;29;20386;-71
2021/05/03 02:55:57;;;;;;;14.82;11.68;;;24.10;99.90;;;;;;4918424;29;20028;-71
2021/05/03 02:58:25;;;;;;;15.15;11.00;;;23.80;99.90;;;;;;4934075;29;20047;-71
2021/05/03 03:00:52;;;;;;;13.10;9.82;;;24.50;99.90;;;;;;4936912;29;20051;-71
2021/05/03 03:03:19;;;;;;;8.88;6.70;;;24.60;99.90;;;;;;4915868;29;20048;-71
2021/05/03 03:05:47;;;;;;;12.32;9.13;;;24.20;99.90;;;;;;4933932;29;20044;-71
2021/05/03 03:08:14;;;;;;;12.70;9.63;;;24.00;99.90;;;;;;4934982;29;20042;-71
2021/05/03 03:10:41;;;;;;;13.85;9.65;;;24.40;99.90;;;;;;4918548;29;20126;-71
2021/05/03 03:13:08;;;;;;;14.18;8.25;;;24.90;99.90;;;;;;4915540;29;20048;-71
2021/05/03 03:15:36;;;;;;;10.63;7.55;;;25.00;99.90;;;;;;4919013;29;20061;-73
2021/05/03 03:18:04;;;;;;;11.88;7.85;;;25.00;99.90;;;;;;4923468;29;20036;-72
2021/05/03 03:20:31;;;;;;;9.88;7.97;;;24.80;99.90;;;;;;4935284;29;20135;-72
2021/05/03 03:22:59;;;;;;;11.75;8.57;;;25.30;99.90;;;;;;4934332;29;20083;-72
2021/05/03 03:25:27;;;;;;;10.77;8.30;;;25.40;99.90;;;;;;4929896;29;20701;-72
2021/05/03 03:27:54;;;;;;;12.95;7.78;;;25.40;99.90;;;;;;4934661;29;20657;-72
2021/05/03 03:30:22;;;;;;;11.55;7.50;;;25.30;99.90;;;;;;4935230;29;20042;-72
2021/05/03 03:32:49;;;;;;;11.20;7.85;;;25.40;99.90;;;;;;4936945;29;20405;-72
2021/05/03 03:35:18;;;;;;;11.48;8.15;;;25.90;99.90;;;;;;4934447;29;20031;-73
2021/05/03 03:37:48;;;;;;;8.55;6.35;;;25.90;99.90;;;;;;4918766;29;20091;-72
2021/05/03 03:40:17;;;;;;;8.13;7.05;;;25.60;99.90;;;;;;4935328;29;20122;-73
2021/05/03 03:42:46;;;;;;;11.52;7.85;;;24.90;99.90;;;;;;4936615;29;20493;-72
2021/05/03 03:45:15;;;;;;;17.38;14.35;;;24.90;99.90;;;;;;4934625;29;20564;-72
2021/05/03 03:47:42;;;;;;;32.08;15.00;;;25.00;99.90;;;;;;4936720;29;20039;-72
2021/05/03 03:50:10;;;;;;;15.73;12.18;;;24.20;99.90;;;;;;4934349;29;20046;-72
2021/05/03 03:52:38;;;;;;;21.25;15.23;;;24.70;99.90;;;;;;4935190;29;20416;-72
2021/05/03 03:55:06;;;;;;;21.95;15.32;;;24.70;99.90;;;;;;4934403;29;20516;-72
2021/05/03 03:57:34;;;;;;;22.90;18.30;;;24.70;99.90;;;;;;4936110;29;20056;-72
2021/05/03 04:00:02;;;;;;;23.15;16.02;;;24.00;99.90;;;;;;4918133;29;20039;-72
2021/05/03 04:02:29;;;;;;;20.95;17.42;;;24.10;99.90;;;;;;4935339;29;20035;-72
2021/05/03 04:06:02;;;;;;;23.38;18.23;;;23.80;99.90;;;;;;4929625;29;20031;-73
2021/05/03 04:21:50;;;;;;;15.50;10.90;;;23.20;99.90;;;;;;4931383;29;20050;-72
2021/05/03 04:24:25;;;;;;;16.70;10.15;;;23.40;99.90;;;;;;4930502;29;20134;-72
2021/05/03 04:26:52;;;;;;;14.07;10.15;;;23.20;99.90;;;;;;4932514;29;20035;-72
2021/05/03 04:29:21;;;;;;;13.57;10.05;;;23.30;99.90;;;;;;4926576;29;20134;-72
2021/05/03 04:31:49;;;;;;;14.82;8.35;;;23.10;99.90;;;;;;4929589;29;20031;-72
2021/05/03 04:34:16;;;;;;;13.57;8.80;;;23.10;99.90;;;;;;4930891;29;20047;-72
2021/05/03 04:36:43;;;;;;;13.13;7.15;;;23.20;99.90;;;;;;4916181;29;20119;-71
2021/05/03 04:39:11;;;;;;;13.77;7.85;;;22.90;99.90;;;;;;4932500;29;20035;-71
2021/05/03 04:41:38;;;;;;;12.00;6.57;;;22.60;99.90;;;;;;4914992;29;20032;-71
2021/05/03 04:44:05;;;;;;;9.27;6.28;;;22.60;99.90;;;;;;4929926;29;20035;-72
2021/05/03 04:46:33;;;;;;;8.98;7.07;;;22.50;99.90;;;;;;4932498;29;20553;-72
2021/05/03 04:49:00;;;;;;;7.68;5.40;;;22.50;99.90;;;;;;4914573;29;20131;-72
2021/05/03 04:51:27;;;;;;;10.40;5.45;;;22.40;99.90;;;;;;4932851;29;20422;-71
2021/05/03 04:53:54;;;;;;;8.55;4.97;;;22.40;99.90;;;;;;4931785;29;20094;-72
2021/05/03 04:56:22;;;;;;;8.63;5.28;;;22.30;99.90;;;;;;4931581;29;20062;-73
2021/05/03 04:58:49;;;;;;;8.77;5.20;;;22.30;99.90;;;;;;4930903;29;20187;-72
2021/05/03 05:01:16;;;;;;;10.43;4.90;;;22.20;99.90;;;;;;4929448;29;20408;-72
2021/05/03 05:03:43;;;;;;;7.78;4.43;;;22.10;99.90;;;;;;4929924;29;20395;-71
2021/05/03 05:06:11;;;;;;;7.72;5.07;;;22.10;99.90;;;;;;4930053;29;20540;-72
2021/05/03 05:08:38;;;;;;;7.70;4.60;;;22.10;99.90;;;;;;4930035;29;20040;-72
2021/05/03 05:11:05;;;;;;;9.38;5.65;;;21.90;99.90;;;;;;4916907;29;20389;-71
2021/05/03 05:13:32;;;;;;;8.82;5.43;;;21.80;99.90;;;;;;4909514;29;20123;-72
2021/05/03 05:16:00;;;;;;;10.15;6.00;;;21.80;99.90;;;;;;4927688;29;20067;-71
2021/05/03 05:18:27;;;;;;;7.88;5.78;;;21.70;99.90;;;;;;4931773;29;20466;-72
2021/05/03 05:20:55;;;;;;;10.30;5.65;;;21.80;99.90;;;;;;4931988;29;20396;-72
2021/05/03 05:23:23;;;;;;;8.70;6.28;;;21.80;99.90;;;;;;4916362;29;20409;-72
2021/05/03 05:25:50;;;;;;;10.48;6.63;;;21.70;99.90;;;;;;4916782;29;20055;-72
2021/05/03 05:28:17;;;;;;;9.57;6.45;;;21.70;99.90;;;;;;4932521;29;20040;-72
2021/05/03 05:30:44;;;;;;;12.20;7.15;;;21.80;99.90;;;;;;4931345;29;20050;-71
2021/05/03 05:33:12;;;;;;;13.70;8.40;;;21.70;99.90;;;;;;4927973;29;20043;-72
2021/05/03 05:35:39;;;;;;;11.48;7.55;;;21.80;99.90;;;;;;4929780;29;20564;-72
2021/05/03 05:38:06;;;;;;;10.60;6.47;;;21.70;99.90;;;;;;4924174;29;20028;-71
2021/05/03 05:40:33;;;;;;;8.70;6.30;;;21.70;99.90;;;;;;4910250;29;20048;-71
2021/05/03 05:43:04;;;;;;;10.82;6.35;;;21.70;99.90;;;;;;4928564;29;20047;-71
2021/05/03 05:45:32;;;;;;;13.02;7.15;;;21.60;99.90;;;;;;4928228;29;20140;-71
2021/05/03 05:47:59;;;;;;;14.95;6.90;;;21.50;99.90;;;;;;4916955;29;20039;-71
2021/05/03 05:50:26;;;;;;;14.23;6.93;;;21.50;99.90;;;;;;4934814;29;20036;-71
2021/05/03 05:52:56;;;;;;;15.60;6.28;;;21.50;99.90;;;;;;4929397;29;20044;-71
2021/05/03 05:55:24;;;;;;;11.35;5.70;;;21.40;99.90;;;;;;4918362;29;20511;-71
2021/05/03 05:57:51;;;;;;;13.18;6.55;;;21.40;99.90;;;;;;4930999;29;20054;-71
2021/05/03 06:00:19;;;;;;;10.63;5.07;;;21.40;99.90;;;;;;4930142;29;20040;-72
2021/05/03 06:02:46;;;;;;;9.55;5.47;;;21.40;99.90;;;;;;4934261;29;20107;-71
2021/05/03 06:05:15;;;;;;;10.75;5.40;;;21.40;99.90;;;;;;4932366;29;20050;-71
2021/05/03 06:07:42;;;;;;;17.25;5.78;;;21.40;99.90;;;;;;4935294;29;20119;-72
2021/05/03 06:10:10;;;;;;;11.02;5.25;;;21.30;99.90;;;;;;4931389;29;20504;-71
2021/05/03 06:12:37;;;;;;;8.48;5.63;;;21.30;99.90;;;;;;4932865;29;20075;-71
2021/05/03 06:15:05;;;;;;;8.82;5.32;;;21.30;99.90;;;;;;4931738;29;20036;-71
2021/05/03 06:17:32;;;;;;;12.65;5.68;;;21.30;99.90;;;;;;4937134;29;20051;-70
2021/05/03 06:20:00;;;;;;;9.70;5.00;;;21.30;99.90;;;;;;4933494;29;20042;-71
2021/05/03 06:22:28;;;;;;;9.10;4.95;;;21.20;99.90;;;;;;4935622;29;20047;-71
2021/05/03 06:24:56;;;;;;;12.18;5.60;;;21.20;99.90;;;;;;4927859;29;20119;-71
2021/05/03 06:27:23;;;;;;;12.95;6.47;;;21.10;99.90;;;;;;4918219;29;20047;-71
2021/05/03 06:29:50;;;;;;;13.55;6.90;;;21.00;99.90;;;;;;4932177;29;20579;-72
2021/05/03 06:32:18;;;;;;;11.23;7.60;;;21.00;99.90;;;;;;4934076;29;20040;-71
2021/05/03 06:34:45;;;;;;;10.63;7.25;;;20.90;99.90;;;;;;4933712;29;20488;-71
2021/05/03 06:37:13;;;;;;;10.75;7.68;;;20.80;99.90;;;;;;4937251;29;20071;-71
2021/05/03 06:39:40;;;;;;;13.32;6.88;;;20.80;99.90;;;;;;4935410;29;20119;-71
2021/05/03 06:42:07;;;;;;;12.90;7.25;;;20.80;99.90;;;;;;4932891;29;20051;-70
2021/05/03 06:44:35;;;;;;;11.32;8.18;;;20.80;99.90;;;;;;4929158;29;20040;-71
2021/05/03 06:47:03;;;;;;;14.63;9.02;;;20.70;99.90;;;;;;4929409;29;20031;-71
2021/05/03 06:49:31;;;;;;;14.05;8.20;;;20.70;99.90;;;;;;4930274;29;20040;-71
2021/05/03 06:51:58;;;;;;;10.82;7.88;;;20.70;99.90;;;;;;4927995;29;20051;-71
2021/05/03 06:54:26;;;;;;;14.27;7.30;;;20.70;99.90;;;;;;4930473;29;20398;-71
2021/05/03 06:56:53;;;;;;;12.88;7.90;;;20.60;99.90;;;;;;4927973;29;20135;-69
2021/05/03 06:59:22;;;;;;;11.77;6.78;;;20.60;99.90;;;;;;4930895;29;20070;-70
2021/05/03 07:01:51;;;;;;;13.02;7.43;;;20.50;99.90;;;;;;4930546;29;20099;-70
2021/05/03 07:04:18;;;;;;;13.32;6.45;;;20.50;99.90;;;;;;4931426;29;20412;-70
2021/05/03 07:06:46;;;;;;;11.15;5.38;;;20.50;99.90;;;;;;4932017;29;20043;-70
2021/05/03 07:09:13;;;;;;;12.00;4.70;;;20.40;99.90;;;;;;4928321;29;20039;-70
2021/05/03 07:11:42;;;;;;;10.20;4.45;;;20.30;99.90;;;;;;4933574;29;20028;-70
2021/05/03 07:14:09;;;;;;;9.05;3.97;;;20.30;99.90;;;;;;4930568;29;20488;-70
2021/05/03 07:16:36;;;;;;;7.15;3.13;;;20.20;99.90;;;;;;4933624;29;20038;-70
2021/05/03 07:19:05;;;;;;;7.78;3.20;;;20.10;99.90;;;;;;4928919;29;20096;-70
2021/05/03 07:21:32;;;;;;;6.15;2.53;;;20.00;99.90;;;;;;4932288;29;20115;-70
2021/05/03 07:23:59;;;;;;;6.78;2.13;;;19.90;99.90;;;;;;4915809;29;20047;-70
2021/05/03 07:26:27;;;;;;;4.18;1.77;;;19.90;99.90;;;;;;4935862;29;20103;-70
2021/05/03 07:28:54;;;;;;;3.55;1.48;;;19.90;99.90;;;;;;4927040;29;20034;-70
2021/05/03 07:31:22;;;;;;;5.30;1.67;;;19.90;99.90;;;;;;4936520;29;20500;-70
2021/05/03 07:33:49;;;;;;;5.28;1.60;;;19.80;99.90;;;;;;4930108;29;20039;-70
2021/05/03 07:36:16;;;;;;;5.20;2.08;;;19.80;99.90;;;;;;4936348;29;20564;-70
2021/05/03 07:38:43;;;;;;;7.47;2.55;;;19.70;99.90;;;;;;4932122;29;20043;-70
2021/05/03 07:41:11;;;;;;;6.32;1.95;;;19.60;99.90;;;;;;4918502;29;20400;-70
2021/05/03 07:43:38;;;;;;;5.93;1.50;;;19.50;99.90;;;;;;4914450;29;20040;-70
2021/05/03 07:46:05;;;;;;;5.50;1.75;;;19.60;99.90;;;;;;4917560;29;20036;-71
2021/05/03 07:48:33;;;;;;;2.63;1.27;;;19.60;99.90;;;;;;4910351;29;20036;-70
2021/05/03 07:51:00;;;;;;;7.65;2.47;;;19.50;99.90;;;;;;4911927;29;20164;-70
2021/05/03 07:53:27;;;;;;;5.22;1.55;;;19.60;99.90;;;;;;4910698;29;20032;-70
2021/05/03 07:55:55;;;;;;;7.55;2.45;;;19.50;99.90;;;;;;4910706;29;20051;-71
2021/05/03 07:58:22;;;;;;;5.88;2.10;;;19.50;99.90;;;;;;4913375;29;20051;-71
2021/05/03 08:00:50;;;;;;;6.75;2.42;;;19.60;99.90;;;;;;4916678;29;20050;-71
2021/05/03 08:03:19;;;;;;;6.35;2.65;;;19.60;99.90;;;;;;4913729;29;20045;-71
2021/05/03 08:05:46;;;;;;;5.78;1.90;;;19.50;99.90;;;;;;4897603;29;20458;-71
2021/05/03 08:08:14;;;;;;;7.35;1.88;;;19.50;99.90;;;;;;4913571;29;20051;-70
2021/05/03 08:10:41;;;;;;;5.47;1.48;;;19.50;99.90;;;;;;4913490;29;20040;-70
2021/05/03 08:13:08;;;;;;;6.28;3.10;;;19.50;99.90;;;;;;4911063;29;20427;-70
2021/05/03 08:15:35;;;;;;;13.77;5.38;;;19.50;99.90;;;;;;4912397;29;20096;-70
2021/05/03 08:18:03;;;;;;;10.98;5.07;;;19.50;99.90;;;;;;4914279;29;20405;-71
2021/05/03 08:20:30;;;;;;;35.17;27.52;;;19.50;99.90;;;;;;4916337;29;20046;-71
2021/05/03 08:22:57;;;;;;;17.80;13.55;;;19.50;99.90;;;;;;4914943;29;20107;-70
2021/05/03 08:25:26;;;;;;;16.73;13.55;;;19.40;99.90;;;;;;4913396;29;20425;-70
2021/05/03 08:27:53;;;;;;;8.73;4.53;;;19.40;99.90;;;;;;4915655;29;20028;-71
2021/05/03 08:30:21;;;;;;;6.38;2.20;;;19.40;99.90;;;;;;4915647;29;20036;-71
2021/05/03 08:32:48;;;;;;;4.72;2.08;;;19.40;99.90;;;;;;4916516;29;20072;-70
2021/05/03 08:35:16;;;;;;;6.75;1.98;;;19.30;99.90;;;;;;4916234;29;20047;-69
2021/05/03 08:37:43;;;;;;;7.80;1.50;;;19.30;99.90;;;;;;4915920;29;20782;-70
2021/05/03 08:40:12;;;;;;;5.97;1.73;;;19.30;99.90;;;;;;4915858;29;20040;-70
2021/05/03 08:42:40;;;;;;;4.35;1.40;;;19.20;99.90;;;;;;4924216;29;20047;-70
2021/05/03 08:45:09;;;;;;;5.10;1.77;;;19.20;99.90;;;;;;4935265;29;20496;-70
2021/05/03 08:47:39;;;;;;;5.22;1.10;;;19.20;99.90;;;;;;4917949;29;20050;-70
2021/05/03 08:50:17;;;;;;;8.25;1.50;;;19.20;99.90;;;;;;4932584;29;20028;-69
2021/05/03 08:52:53;;;;;;;5.03;1.98;;;19.20;99.90;;;;;;4928625;29;20054;-69
2021/05/03 08:55:21;;;;;;;7.28;1.77;;;19.30;99.90;;;;;;4934088;29;20039;-69
2021/05/03 08:57:48;;;;;;;4.88;1.00;;;19.20;99.90;;;;;;4932296;29;20381;-69
2021/05/03 09:00:17;;;;;;;6.22;1.23;;;19.20;99.90;;;;;;4934358;29;20497;-70
2021/05/03 09:02:47;;;;;;;7.35;1.63;;;19.20;99.90;;;;;;4933004;29;20440;-69
2021/05/03 09:05:16;;;;;;;8.18;1.52;;;19.10;99.90;;;;;;4928810;29;20440;-69
2021/05/03 09:07:51;;;;;;;4.82;1.45;;;19.10;99.90;;;;;;4933740;29;20047;-69
2021/05/03 09:10:22;;;;;;;7.03;2.10;;;19.00;99.90;;;;;;4934060;29;20044;-69
2021/05/03 09:12:50;;;;;;;8.27;1.60;;;19.00;99.90;;;;;;4933928;29;20036;-69
2021/05/03 09:15:26;;;;;;;4.93;1.50;;;19.00;99.90;;;;;;4933256;29;20055;-70
2021/05/03 09:17:54;;;;;;;6.45;1.67;;;19.00;99.90;;;;;;4933060;29;20031;-69
2021/05/03 09:20:24;;;;;;;6.30;2.38;;;19.00;99.90;;;;;;4933937;29;20493;-69
2021/05/03 09:22:57;;;;;;;6.15;2.08;;;19.00;99.90;;;;;;4930193;29;20552;-69
2021/05/03 09:25:32;;;;;;;7.68;2.45;;;19.00;99.90;;;;;;4933744;29;20067;-69
2021/05/03 09:28:04;;;;;;;4.50;1.80;;;19.10;99.90;;;;;;4928869;29;20059;-69
2021/05/03 09:30:43;;;;;;;11.50;1.98;;;19.00;99.90;;;;;;4933884;29;20493;-69
2021/05/03 09:33:24;;;;;;;3.75;1.77;;;19.00;99.90;;;;;;4930754;29;20035;-70
2021/05/03 09:36:06;;;;;;;5.53;1.45;;;19.10;99.90;;;;;;4931270;29;20051;-69
2021/05/03 09:38:44;;;;;;;3.83;1.10;;;19.10;99.90;;;;;;4933119;29;20412;-69
2021/05/03 09:41:27;;;;;;;3.42;1.50;;;19.10;99.90;;;;;;4933063;29;20035;-69
2021/05/03 09:44:08;;;;;;;5.55;1.55;;;19.20;99.90;;;;;;4932184;29;20048;-70
2021/05/03 09:46:37;;;;;;;7.15;1.67;;;19.20;99.90;;;;;;4934017;29;20036;-70
2021/05/03 09:49:10;;;;;;;4.22;1.40;;;19.10;99.90;;;;;;4933533;29;20027;-70
2021/05/03 09:51:45;;;;;;;6.18;2.00;;;19.10;99.90;;;;;;4933641;29;20042;-69
2021/05/03 09:54:20;;;;;;;4.07;1.80;;;19.10;99.90;;;;;;4934242;29;20036;-70
2021/05/03 09:57:00;;;;;;;6.03;1.45;;;19.20;99.90;;;;;;4933939;29;20040;-70
2021/05/03 09:59:45;;;;;;;4.82;1.40;;;19.20;99.90;;;;;;4921617;29;20553;-70
2021/05/03 10:04:56;;;;;;;6.00;2.10;;;19.20;99.90;;;;;;4933066;29;20044;-70
2021/05/03 10:07:25;;;;;;;6.45;1.50;;;19.20;99.90;;;;;;4933317;29;20039;-70
2021/05/03 10:10:11;;;;;;;3.17;1.40;;;19.20;99.90;;;;;;4934201;29;20510;-70
2021/05/03 10:12:39;;;;;;;4.30;2.80;;;19.20;99.90;;;;;;4933655;29;20036;-70
2021/05/03 10:15:11;;;;;;;8.15;2.85;;;19.20;99.90;;;;;;4933913;29;20032;-70
2021/05/03 10:17:44;;;;;;;6.38;3.00;;;19.20;99.90;;;;;;4934350;29;20545;-70
2021/05/03 10:20:13;;;;;;;6.28;1.80;;;19.20;99.90;;;;;;4929795;29;20036;-70
2021/05/03 10:22:41;;;;;;;3.40;1.42;;;19.30;99.90;;;;;;4917555;29;20047;-70
2021/05/03 10:25:12;;;;;;;4.25;1.45;;;19.20;99.90;;;;;;4933266;29;20032;-70
2021/05/03 10:27:42;;;;;;;7.65;2.65;;;19.20;99.90;;;;;;4935042;29;20044;-70
2021/05/03 10:30:16;;;;;;;6.47;2.10;;;19.10;99.90;;;;;;4934907;29;20485;-70
2021/05/03 10:32:46;;;;;;;6.93;2.40;;;19.10;99.90;;;;;;4922642;29;20038;-71
2021/05/03 10:35:37;;;;;;;7.82;2.95;;;19.10;99.90;;;;;;4936632;29;20493;-69
2021/05/03 10:38:07;;;;;;;10.93;3.88;;;19.00;99.90;;;;;;4936617;29;20038;-69
2021/05/03 10:40:34;;;;;;;8.98;3.72;;;18.90;99.90;;;;;;4936489;29;20043;-70
2021/05/03 10:43:06;;;;;;;9.15;3.15;;;18.80;99.90;;;;;;4936822;29;20051;-70
2021/05/03 10:51:38;;;;;;;5.63;1.88;;;18.90;99.90;;;;;;4936172;29;20485;-71
2021/05/03 10:54:38;;;;;;;7.45;1.70;;;18.90;99.90;;;;;;4935194;29;20587;-70
2021/05/03 10:57:07;;;;;;;4.90;1.95;;;18.90;99.90;;;;;;4936728;29;20499;-70
2021/05/03 10:59:52;;;;;;;6.18;3.10;;;18.80;99.90;;;;;;4936857;29;20047;-70
2021/05/03 11:02:21;;;;;;;5.05;2.38;;;18.80;99.90;;;;;;4935911;29;20486;-70
2021/05/03 11:05:26;;;;;;;11.48;2.80;;;18.80;99.90;;;;;;4935734;29;20039;-70
2021/05/03 11:08:06;;;;;;;4.00;2.55;;;18.80;99.90;;;;;;4935597;29;20064;-70
2021/05/03 11:10:58;;;;;;;7.93;3.65;;;18.80;99.90;;;;;;4934840;29;20519;-71
2021/05/03 11:13:41;;;;;;;7.78;4.13;;;18.80;99.90;;;;;;4918773;29;20052;-70
2021/05/03 11:16:30;;;;;;;9.13;5.30;;;18.80;99.90;;;;;;4934002;29;20070;-71
2021/05/03 11:19:00;;;;;;;10.02;5.28;;;18.80;99.90;;;;;;4936138;29;20201;-70
2021/05/03 11:21:41;;;;;;;10.63;5.40;;;18.80;99.90;;;;;;4936325;29;20038;-71
2021/05/03 11:24:20;;;;;;;10.80;5.65;;;18.80;99.90;;;;;;4932073;29;20044;-70
2021/05/03 11:27:01;;;;;;;13.50;6.00;;;18.80;99.90;;;;;;4931042;29;20039;-70
2021/05/03 11:29:51;;;;;;;10.00;5.80;;;18.80;99.90;;;;;;4930946;29;20036;-70
2021/05/03 11:32:18;;;;;;;15.32;6.00;;;18.80;99.90;;;;;;4933010;29;20044;-70
2021/05/03 11:37:33;;;;;;;10.68;4.82;;;18.80;99.90;;;;;;4929528;29;20102;-70
2021/05/03 11:40:24;;;;;;;10.10;4.90;;;18.80;99.90;;;;;;4931437;29;20072;-70
2021/05/03 11:45:27;;;;;;;11.27;5.30;;;18.70;99.90;;;;;;4933848;29;20513;-71
2021/05/03 11:47:55;;;;;;;9.82;5.60;;;18.70;99.90;;;;;;4930046;29;20039;-70
2021/05/03 11:50:28;;;;;;;10.60;6.03;;;18.60;99.90;;;;;;4933387;29;20394;-70
2021/05/03 11:52:55;;;;;;;10.40;4.95;;;18.60;99.90;;;;;;4931330;29;20091;-70
2021/05/03 11:55:25;;;;;;;12.23;6.05;;;18.50;99.90;;;;;;4932265;29;20036;-70
2021/05/03 11:57:53;;;;;;;10.38;5.30;;;18.50;99.90;;;;;;4932958;29;20035;-71
2021/05/03 12:00:22;;;;;;;9.05;5.68;;;18.40;99.90;;;;;;4917117;29;20191;-71
2021/05/03 12:03:05;;;;;;;9.35;4.93;;;18.40;99.90;;;;;;4932453;29;20067;-71
2021/05/03 12:05:34;;;;;;;8.95;4.78;;;18.30;99.90;;;;;;4930235;29;20032;-70
2021/05/03 12:08:15;;;;;;;9.23;4.93;;;18.30;99.90;;;;;;4932072;29;20584;-71
2021/05/03 12:10:43;;;;;;;12.88;5.38;;;18.30;99.90;;;;;;4928871;29;20401;-71
2021/05/03 12:13:19;;;;;;;8.88;5.15;;;18.30;99.90;;;;;;4915490;29;20086;-71
2021/05/03 12:15:47;;;;;;;9.15;5.10;;;18.20;99.90;;;;;;4930879;29;20417;-71
2021/05/03 12:18:20;;;;;;;7.95;4.93;;;18.20;99.90;;;;;;4932229;29;20036;-71
2021/05/03 12:20:48;;;;;;;8.33;5.40;;;18.20;99.90;;;;;;4931759;29;20400;-71
2021/05/03 12:23:16;;;;;;;9.23;4.75;;;18.20;99.90;;;;;;4933272;29;20325;-71
2021/05/03 12:25:51;;;;;;;11.18;5.00;;;18.20;99.90;;;;;;4933664;29;20067;-71
2021/05/03 12:28:30;;;;;;;9.25;4.97;;;18.20;99.90;;;;;;4930381;29;20457;-71
2021/05/03 12:31:01;;;;;;;11.07;5.00;;;18.10;99.90;;;;;;4932525;29;20027;-71
2021/05/03 12:33:29;;;;;;;9.10;4.63;;;18.10;99.90;;;;;;4932169;29;20028;-71
2021/05/03 12:35:58;;;;;;;8.15;5.10;;;18.10;99.90;;;;;;4934150;29;20099;-71
2021/05/03 12:38:31;;;;;;;9.10;4.82;;;18.10;99.90;;;;;;4931357;29;20047;-71
2021/05/03 12:41:00;;;;;;;9.88;5.28;;;18.10;99.90;;;;;;4933308;29;20094;-71
2021/05/03 12:43:33;;;;;;;8.93;5.45;;;18.10;99.90;;;;;;4924667;29;20116;-71
2021/05/03 12:46:14;;;;;;;10.40;5.32;;;18.10;99.90;;;;;;4928241;29;20489;-70
2021/05/03 12:49:03;;;;;;;8.93;5.25;;;18.10;99.90;;;;;;4931314;29;20709;-71
2021/05/03 12:56:52;;;;;;;9.63;6.20;;;18.10;99.90;;;;;;4933297;29;20047;-71
2021/05/03 12:59:28;;;;;;;12.70;5.38;;;18.10;99.90;;;;;;4932054;29;20400;-71
2021/05/03 13:02:57;;;;;;;9.65;5.35;;;18.10;99.90;;;;;;4933811;29;20559;-71
2021/05/03 13:05:10;;;;;;;8.85;4.97;;;18.10;99.90;;;;;;4920499;29;20043;-71
2021/05/03 13:30:02;;;;;;;6.85;4.82;;;17.90;99.90;;;;;;4929884;29;20054;-71
2021/05/03 13:32:31;;;;;;;8.25;4.43;;;18.00;99.90;;;;;;4930675;29;20038;-70
2021/05/03 13:34:59;;;;;;;10.57;4.88;;;18.10;99.90;;;;;;4929886;29;20032;-70
2021/05/03 13:37:27;;;;;;;7.43;3.90;;;18.10;99.90;;;;;;4931983;29;20456;-70
2021/05/03 13:39:54;;;;;;;6.78;4.03;;;18.20;99.90;;;;;;4929556;29;20039;-70
2021/05/03 13:42:21;;;;;;;12.05;4.20;;;18.20;99.90;;;;;;4931162;29;20055;-70
2021/05/03 13:44:48;;;;;;;11.07;4.00;;;18.20;99.90;;;;;;4927404;29;20110;-70
2021/05/03 13:47:16;;;;;;;7.75;4.00;;;18.30;99.90;;;;;;4926462;29;20036;-70